| Data: 05/05/2026, Hora: 22:00 | |||||
| Act. | Màx. | Hora màxima | Mín. | Hora mínima | |
| Temperatura | 10,6 °C | 20,6 °C | 15:02 | 8,3 °C | 18:12 |
| Humitat | 100 % | 100 % | 21:57 | 47 % | 15:02 |
| Pressió | 1.011,6 hPa | 1.044,3 hPa | 05:00 | 1.011,2 hPa | 21:57 |
| Vent | 1 km/h | 23 km/h | 02:43 | ![]() |
|
| Direcció | SE | ||||
| Precipitació | 21,6 mm | ||||
| Horari | Temperatura | Humitat | Pressió | Vent | Pluja | ||||||||
| Act. | Màx. | Mín. | Act. | Màx. | Mín. | Act. | Màx. | Mín. | Act. | Dir. | Màx. | ||
| 00:01 - 01:00 | 11,0 | 11,7 | 10,6 | 98 | 100 | 97 | 1012,6 | 1012,6 | 1012,6 | 1 | ENE | 10 | |
| 01:01 - 02:00 | 11,2 | 11,7 | 11,1 | 92 | 97 | 86 | 1012,6 | 1012,6 | 1012,6 | 2 | E | 16 | |
| 02:01 - 03:00 | 11,7 | 12,2 | 11,1 | 86 | 88 | 83 | 1012,5 | 1012,6 | 1012,2 | 6 | E | 23 | |
| 03:01 - 04:00 | 12,1 | 12,2 | 11,7 | 82 | 83 | 81 | 1012,4 | 1012,6 | 1012,2 | 3 | ESE | 21 | |
| 04:01 - 05:00 | 11,9 | 12,2 | 11,1 | 81 | 85 | 79 | 1012,5 | 1044,3 | 1012,2 | 2 | E | 18 | |
| 05:01 - 06:00 | 10,3 | 11,1 | 9,4 | 86 | 92 | 82 | 1012,2 | 1012,6 | 1012,2 | 0 | N | 1 | |
| 06:01 - 07:00 | 9,0 | 9,4 | 8,9 | 96 | 99 | 92 | 1012,1 | 1012,2 | 1011,9 | 2 | ENE | 14 | |
| 07:01 - 08:00 | 10,9 | 13,9 | 8,9 | 93 | 100 | 78 | 1012,3 | 1012,9 | 1011,9 | 0 | NNE | 5 | |
| 08:01 - 09:00 | 14,8 | 15,6 | 13,9 | 68 | 77 | 63 | 1012,9 | 1012,9 | 1012,9 | 3 | E | 18 | |
| 09:01 - 10:00 | 15,7 | 17,2 | 13,9 | 72 | 78 | 69 | 1013,3 | 1013,3 | 1012,9 | 1 | SSE | 11 | |
| 10:01 - 11:00 | 16,1 | 18,3 | 14,4 | 70 | 83 | 62 | 1013,4 | 1013,6 | 1013,3 | 1 | ESE | 11 | |
| 11:01 - 12:00 | 16,3 | 20,0 | 13,9 | 80 | 91 | 56 | 1013,0 | 1013,6 | 1012,9 | 2 | E | 18 | |
| 12:01 - 13:00 | 17,1 | 18,9 | 15,6 | 70 | 82 | 60 | 1013,6 | 1013,9 | 1013,6 | 3 | WSW | 18 | |
| 13:01 - 14:00 | 18,8 | 19,4 | 17,2 | 62 | 71 | 55 | 1013,5 | 1013,6 | 1013,3 | 2 | SW | 11 | |
| 14:01 - 15:00 | 19,4 | 20,6 | 18,3 | 57 | 62 | 50 | 1013,2 | 1013,3 | 1012,9 | 4 | WSW | 18 | |
| 15:01 - 16:00 | 19,6 | 20,6 | 18,9 | 52 | 55 | 47 | 1012,7 | 1012,9 | 1012,6 | 4 | W | 21 | |
| 16:01 - 17:00 | 19,4 | 20,5 | 18,3 | 56 | 60 | 52 | 1012,1 | 1012,6 | 1011,9 | 4 | W | 19 | |
| 17:01 - 18:00 | 16,1 | 17,8 | 11,1 | 64 | 74 | 62 | 1012,1 | 1012,9 | 1011,9 | 2 | S | 16 | 13,7 |
| 18:01 - 19:00 | 9,6 | 10,6 | 8,3 | 94 | 100 | 74 | 1011,7 | 1012,9 | 1011,6 | 3 | E | 16 | 7,6 |
| 19:01 - 20:00 | 10,8 | 11,1 | 10,6 | 100 | 100 | 100 | 1011,2 | 1011,6 | 1011,2 | 2 | E | 14 | 0,3 |
| 20:01 - 21:00 | 11,1 | 11,1 | 11,1 | 100 | 100 | 100 | 1011,2 | 1011,6 | 1011,2 | 3 | SE | 16 | |
| 21:01 - 22:00 | 10,8 | 11,1 | 10,6 | 100 | 100 | 100 | 1011,3 | 1011,6 | 1011,2 | 4 | ESE | 18 | |
| 13,8 | 20,6 | 8,3 | 80 | 100 | 47 | 1012,5 | 1044,3 | 1011,2 | 2 | SE | 23 | 21,6 | |